Time;durP1;ratioP1;P1;durP2;ratioP2;P2;SDS_P1;SDS_P2;PMS_P1;PMS_P2;Temp;Humidity;BMP_temperature;BMP_pressure;BME280_temperature;BME280_humidity;BME280_pressure;Samples;Min_cycle;Max_cycle;Signal;HPM_P1;HPM_P2
2022/04/20 00:01:42;;;;;;;2.90;2.60;;;8.70;99.90;;;;;;5064072;28;20252;-59
2022/04/20 00:04:12;;;;;;;4.73;2.83;;;8.60;99.90;;;;;;5059715;28;20261;-58
2022/04/20 00:06:41;;;;;;;3.97;2.63;;;8.60;99.90;;;;;;5060982;28;20191;-58
2022/04/20 00:09:08;;;;;;;4.77;3.37;;;8.60;99.90;;;;;;5062445;28;20237;-59
2022/04/20 00:11:35;;;;;;;5.03;3.10;;;8.50;1.00;;;;;;5061862;28;20584;-59
2022/04/20 00:14:02;;;;;;;3.87;2.73;;;8.40;1.00;;;;;;5063397;28;20207;-59
2022/04/20 00:16:29;;;;;;;3.80;2.73;;;8.40;1.00;;;;;;5066942;28;20191;-59
2022/04/20 00:18:59;;;;;;;6.57;3.10;;;8.40;1.00;;;;;;5067061;28;20209;-59
2022/04/20 00:21:26;;;;;;;5.67;2.90;;;8.30;1.00;;;;;;5065906;28;20202;-60
2022/04/20 00:23:54;;;;;;;3.90;2.80;;;8.30;1.00;;;;;;5067578;28;20194;-59
2022/04/20 00:26:21;;;;;;;4.87;3.60;;;8.20;1.00;;;;;;5064647;28;20335;-59
2022/04/20 00:28:54;;;;;;;6.40;3.90;;;8.10;1.00;;;;;;5065598;28;21048;-59
2022/04/20 00:31:21;;;;;;;7.47;4.20;;;8.10;1.00;;;;;;5053605;28;20205;-59
2022/04/20 00:33:48;;;;;;;10.10;4.03;;;8.10;1.00;;;;;;5067804;28;20230;-59
2022/04/20 00:36:15;;;;;;;4.00;3.60;;;8.00;1.00;;;;;;5065062;28;20587;-59
2022/04/20 00:38:45;;;;;;;8.13;3.97;;;7.90;1.00;;;;;;5048863;28;20863;-59
2022/04/20 00:41:15;;;;;;;9.13;4.17;;;7.90;1.00;;;;;;5065887;28;20199;-59
2022/04/20 00:43:42;;;;;;;5.20;3.57;;;7.80;1.00;;;;;;5064568;28;20780;-59
2022/04/20 00:46:10;;;;;;;7.23;3.63;;;7.90;1.00;;;;;;5067405;28;20668;-59
2022/04/20 00:48:39;;;;;;;5.73;3.77;;;7.90;1.00;;;;;;5048382;28;20234;-59
2022/04/20 00:51:06;;;;;;;7.10;3.90;;;7.80;1.00;;;;;;5065334;28;20201;-59
2022/04/20 00:53:33;;;;;;;12.93;4.47;;;7.80;1.00;;;;;;5023841;28;20751;-60
2022/04/20 00:56:04;;;;;;;6.00;4.27;;;7.80;1.00;;;;;;5041382;28;20198;-60
2022/04/20 00:58:31;;;;;;;6.63;3.93;;;7.80;1.00;;;;;;5049563;28;20231;-60
2022/04/20 01:00:58;;;;;;;8.27;4.80;;;7.70;1.00;;;;;;5046158;28;20207;-60
2022/04/20 01:03:26;;;;;;;6.03;4.60;;;7.70;1.00;;;;;;5043696;28;20217;-59
2022/04/20 01:06:11;;;;;;;8.53;5.27;;;7.60;1.00;;;;;;5058351;28;20206;-59
2022/04/20 01:09:01;;;;;;;10.30;4.80;;;7.50;1.00;;;;;;5022723;28;20203;-60
2022/04/20 01:12:04;;;;;;;5.10;3.80;;;7.50;1.00;;;;;;5005776;28;20735;-60
2022/04/20 01:14:54;;;;;;;4.83;3.60;;;7.50;1.00;;;;;;5064594;28;20211;-60
2022/04/20 01:17:27;;;;;;;9.03;3.80;;;7.40;1.00;;;;;;5068856;28;20248;-60
2022/04/20 01:20:18;;;;;;;6.73;4.10;;;7.40;1.00;;;;;;5054315;28;20290;-60
2022/04/20 01:23:00;;;;;;;8.43;4.53;;;7.30;1.00;;;;;;5065867;28;21980;-60
2022/04/20 01:25:46;;;;;;;7.13;4.20;;;7.30;1.00;;;;;;5067774;28;20214;-60
2022/04/20 01:28:34;;;;;;;7.20;4.40;;;7.30;1.00;;;;;;5068099;28;20217;-59
2022/04/20 01:31:19;;;;;;;5.97;4.17;;;7.20;1.00;;;;;;5052255;28;20207;-59
2022/04/20 01:34:04;;;;;;;7.37;4.70;;;7.20;1.00;;;;;;5065770;28;20238;-58
2022/04/20 01:36:34;;;;;;;6.50;4.10;;;7.20;1.00;;;;;;5066571;28;20261;-58
2022/04/20 01:39:01;;;;;;;8.30;4.63;;;7.10;1.00;;;;;;5048975;28;20210;-58
2022/04/20 01:41:28;;;;;;;7.30;4.13;;;7.00;1.00;;;;;;5069260;28;20529;-58
2022/04/20 01:43:57;;;;;;;6.80;4.13;;;7.00;6.20;;;;;;5065991;28;20189;-58
2022/04/20 01:46:36;;;;;;;5.97;4.50;;;6.90;25.80;;;;;;5046902;28;20201;-58
2022/04/20 01:49:22;;;;;;;7.23;4.90;;;6.90;45.30;;;;;;5070103;28;20226;-59
2022/04/20 01:52:08;;;;;;;7.10;6.37;;;6.80;64.90;;;;;;5053322;28;20214;-59
2022/04/20 01:54:55;;;;;;;8.30;5.27;;;6.80;99.90;;;;;;5067418;28;20603;-58
2022/04/20 01:57:28;;;;;;;8.77;5.90;;;6.80;96.00;;;;;;5049744;28;20677;-59
2022/04/20 02:00:17;;;;;;;10.47;7.10;;;6.80;71.00;;;;;;5065874;28;21162;-59
2022/04/20 02:03:00;;;;;;;8.97;7.13;;;6.80;51.50;;;;;;5048114;28;20294;-59
2022/04/20 02:05:46;;;;;;;7.73;5.03;;;6.80;74.50;;;;;;5047882;28;20198;-59
2022/04/20 02:08:17;;;;;;;7.17;4.23;;;6.80;99.90;;;;;;5041165;28;20202;-59
2022/04/20 02:11:03;;;;;;;6.40;4.30;;;6.80;99.90;;;;;;5067428;28;20340;-59
2022/04/20 02:13:33;;;;;;;9.50;4.87;;;6.70;99.90;;;;;;5064601;28;20199;-59
2022/04/20 02:16:05;;;;;;;8.53;4.67;;;6.70;91.00;;;;;;5047240;28;20203;-60
2022/04/20 02:19:07;;;;;;;6.63;4.57;;;6.70;86.80;;;;;;5028541;28;20226;-59
2022/04/20 02:21:35;;;;;;;5.63;4.30;;;6.60;80.10;;;;;;5048890;28;20688;-59
2022/04/20 02:24:10;;;;;;;6.00;4.27;;;6.60;99.90;;;;;;5064950;28;20548;-60
2022/04/20 02:26:37;;;;;;;7.70;4.97;;;6.50;99.90;;;;;;5047293;28;20249;-59
2022/04/20 02:29:05;;;;;;;11.27;7.00;;;6.40;99.90;;;;;;5066775;28;20857;-59
2022/04/20 02:31:32;;;;;;;12.93;6.50;;;6.50;99.90;;;;;;5041797;28;20218;-60
2022/04/20 02:34:00;;;;;;;10.30;7.00;;;6.40;99.90;;;;;;5065240;28;20179;-59
2022/04/20 02:36:31;;;;;;;9.80;6.27;;;6.40;99.90;;;;;;5047271;28;20206;-58
2022/04/20 02:38:58;;;;;;;7.17;6.00;;;6.30;99.90;;;;;;5064038;28;20308;-59
2022/04/20 02:41:25;;;;;;;8.93;6.00;;;6.30;99.90;;;;;;5066272;28;20183;-59
2022/04/20 02:43:52;;;;;;;9.03;5.77;;;6.30;99.90;;;;;;5049748;28;20267;-59
2022/04/20 02:46:22;;;;;;;6.37;5.07;;;6.30;99.90;;;;;;5067211;28;20210;-59
2022/04/20 02:48:52;;;;;;;7.47;5.17;;;6.30;99.90;;;;;;5067593;28;20198;-59
2022/04/20 02:51:19;;;;;;;9.10;6.03;;;6.30;99.90;;;;;;5047853;28;20306;-59
2022/04/20 02:53:47;;;;;;;8.40;5.53;;;6.30;99.90;;;;;;5062647;28;20230;-59
2022/04/20 02:56:14;;;;;;;8.03;5.07;;;6.30;99.90;;;;;;5065107;28;20202;-59
2022/04/20 02:58:44;;;;;;;7.77;5.30;;;6.30;99.90;;;;;;5047200;28;20245;-58
2022/04/20 03:01:11;;;;;;;6.73;5.37;;;6.30;99.90;;;;;;5065399;28;20202;-58
2022/04/20 03:03:42;;;;;;;8.90;5.67;;;6.30;99.90;;;;;;5046097;28;20685;-59
2022/04/20 03:06:20;;;;;;;7.07;5.40;;;6.30;99.90;;;;;;5048573;28;20198;-59
2022/04/20 03:08:48;;;;;;;11.40;6.07;;;6.30;99.90;;;;;;5066017;28;20705;-59
2022/04/20 03:11:19;;;;;;;12.07;6.47;;;6.20;99.90;;;;;;5046921;28;20195;-59
2022/04/20 03:13:48;;;;;;;8.57;6.03;;;6.10;99.90;;;;;;5042258;28;20591;-59
2022/04/20 03:16:17;;;;;;;16.03;8.63;;;6.20;99.90;;;;;;5065147;28;20189;-59
2022/04/20 03:18:45;;;;;;;11.10;7.57;;;6.20;99.90;;;;;;5045752;28;20232;-59
2022/04/20 03:21:20;;;;;;;15.80;9.90;;;6.20;99.90;;;;;;5046713;28;20202;-58
2022/04/20 03:23:49;;;;;;;17.43;12.03;;;6.20;99.90;;;;;;5047335;28;20306;-58
2022/04/20 03:26:32;;;;;;;24.07;13.17;;;6.10;99.90;;;;;;5047670;28;20202;-59
2022/04/20 03:29:24;;;;;;;17.27;10.80;;;6.10;99.90;;;;;;5048755;28;20207;-58
2022/04/20 03:31:52;;;;;;;8.87;5.73;;;6.10;99.90;;;;;;5043935;28;20858;-59
2022/04/20 03:34:19;;;;;;;8.30;5.60;;;6.10;99.90;;;;;;5063644;28;20284;-59
2022/04/20 03:36:47;;;;;;;7.40;5.67;;;6.10;99.90;;;;;;5044253;28;20198;-59
2022/04/20 03:39:14;;;;;;;8.03;5.07;;;6.10;99.90;;;;;;5038319;28;20338;-59
2022/04/20 03:41:43;;;;;;;9.87;5.70;;;6.10;99.90;;;;;;5021565;28;20191;-59
2022/04/20 03:44:10;;;;;;;11.03;6.27;;;6.10;99.90;;;;;;5047921;28;20223;-59
2022/04/20 03:46:37;;;;;;;9.07;5.53;;;6.10;99.90;;;;;;5046276;28;20253;-59
2022/04/20 03:49:04;;;;;;;6.10;4.93;;;6.00;99.90;;;;;;5045098;28;20219;-60
2022/04/20 03:51:32;;;;;;;8.37;5.43;;;6.00;99.90;;;;;;5046163;28;20195;-59
2022/04/20 03:54:00;;;;;;;6.60;5.00;;;5.90;99.90;;;;;;5037829;28;20276;-59
2022/04/20 03:57:03;;;;;;;8.57;5.40;;;5.90;99.90;;;;;;5027249;28;20342;-59
2022/04/20 03:59:16;;;;;;;7.93;4.83;;;5.90;99.90;;;;;;5043701;28;20237;-59
2022/04/20 04:01:44;;;;;;;6.53;4.53;;;5.90;99.90;;;;;;5059252;28;20218;-59
2022/04/20 04:04:12;;;;;;;7.63;5.57;;;5.80;99.90;;;;;;5044153;28;20548;-58
2022/04/20 04:06:41;;;;;;;7.67;4.70;;;5.80;99.90;;;;;;5035621;28;20195;-59
2022/04/20 04:09:08;;;;;;;5.43;4.30;;;5.70;1.00;;;;;;5036698;28;20210;-58
2022/04/20 04:11:36;;;;;;;5.93;4.73;;;5.70;1.00;;;;;;5020835;28;20223;-58
2022/04/20 04:14:03;;;;;;;9.53;4.50;;;5.60;1.00;;;;;;5035447;28;20195;-59
2022/04/20 04:16:36;;;;;;;12.23;4.73;;;5.70;1.00;;;;;;5047027;28;20651;-59
2022/04/20 04:19:04;;;;;;;7.10;5.03;;;5.70;1.00;;;;;;5044457;28;20329;-59
2022/04/20 04:21:32;;;;;;;7.27;4.90;;;5.60;1.00;;;;;;5042218;28;20558;-59
2022/04/20 04:23:59;;;;;;;7.47;4.93;;;5.50;1.00;;;;;;5044639;28;20195;-59
2022/04/20 04:26:34;;;;;;;7.00;4.17;;;5.60;1.00;;;;;;5044853;28;20200;-59
2022/04/20 04:29:01;;;;;;;8.63;4.43;;;5.60;1.00;;;;;;5044879;28;20204;-59
2022/04/20 04:31:29;;;;;;;7.13;4.80;;;5.60;1.00;;;;;;5043801;28;20285;-59
2022/04/20 04:33:57;;;;;;;10.40;4.80;;;5.60;1.00;;;;;;5043865;28;20863;-58
2022/04/20 04:36:23;;;;;;;6.97;4.70;;;5.70;1.00;;;;;;5024974;28;20202;-58
2022/04/20 04:38:54;;;;;;;11.00;5.27;;;5.70;1.00;;;;;;5065635;28;20230;-59
2022/04/20 04:41:27;;;;;;;7.47;4.93;;;5.80;1.00;;;;;;5067094;28;20195;-59
2022/04/20 04:43:56;;;;;;;10.73;5.90;;;5.70;1.00;;;;;;5070981;28;20203;-59
2022/04/20 04:49:16;;;;;;;6.57;4.20;;;5.80;1.00;;;;;;5050690;28;20225;-59
2022/04/20 04:51:44;;;;;;;11.70;5.60;;;5.80;1.00;;;;;;5032169;28;20195;-59
2022/04/20 04:54:15;;;;;;;16.77;6.83;;;5.90;1.00;;;;;;5057935;28;20294;-58
2022/04/20 04:56:42;;;;;;;7.60;5.97;;;6.00;1.00;;;;;;5049193;28;22732;-59
2022/04/20 04:59:10;;;;;;;14.20;7.00;;;5.90;1.00;;;;;;5044500;28;20245;-58
2022/04/20 05:01:38;;;;;;;18.13;8.30;;;5.90;1.00;;;;;;5057609;28;20198;-59
2022/04/20 05:04:11;;;;;;;16.33;8.07;;;5.90;1.00;;;;;;5049135;28;20915;-59
2022/04/20 05:06:41;;;;;;;13.30;7.13;;;6.00;1.00;;;;;;5064843;28;20214;-60
2022/04/20 05:09:26;;;;;;;12.93;7.37;;;6.20;1.00;;;;;;5069604;28;20225;-58
2022/04/20 05:11:54;;;;;;;10.60;6.10;;;6.40;99.90;;;;;;5048418;28;20650;-59
2022/04/20 05:14:22;;;;;;;11.37;7.13;;;6.50;99.90;;;;;;5048253;28;20672;-59
2022/04/20 05:16:55;;;;;;;11.53;6.40;;;6.50;99.90;;;;;;5063660;28;20301;-58
2022/04/20 05:19:22;;;;;;;11.90;5.90;;;6.60;99.90;;;;;;5068202;28;20218;-59
2022/04/20 05:21:52;;;;;;;9.00;5.47;;;6.60;99.90;;;;;;5047551;28;20192;-59
2022/04/20 05:24:27;;;;;;;10.97;5.47;;;6.70;99.90;;;;;;5049558;28;20205;-58
2022/04/20 05:26:54;;;;;;;9.77;5.43;;;6.80;99.90;;;;;;5049846;28;20190;-58
2022/04/20 05:29:22;;;;;;;7.00;4.63;;;6.90;99.90;;;;;;5067980;28;20205;-58
2022/04/20 05:32:00;;;;;;;9.67;4.80;;;7.00;99.90;;;;;;5045985;28;20217;-58
2022/04/20 05:34:30;;;;;;;10.23;4.97;;;7.00;99.90;;;;;;5066758;28;20280;-57
2022/04/20 05:42:31;;;;;;;7.87;4.57;;;7.20;99.90;;;;;;5041532;28;20202;-59
2022/04/20 05:45:02;;;;;;;7.13;4.10;;;7.40;99.90;;;;;;5046776;28;20199;-59
2022/04/20 05:47:30;;;;;;;5.33;3.90;;;7.50;79.10;;;;;;5047412;28;20227;-59
2022/04/20 05:50:03;;;;;;;6.40;4.27;;;8.10;1.00;;;;;;5049315;28;20207;-59
2022/04/20 05:52:30;;;;;;;5.90;3.93;;;8.00;1.00;;;;;;5065317;28;20191;-59
2022/04/20 05:54:59;;;;;;;8.67;3.90;;;8.20;1.00;;;;;;5066335;28;20629;-59
2022/04/20 05:57:26;;;;;;;5.67;4.00;;;9.50;1.00;;;;;;5046108;28;20214;-59
2022/04/20 05:59:54;;;;;;;3.37;3.03;;;12.30;1.00;;;;;;5048367;28;20226;-59
2022/04/20 06:02:23;;;;;;;5.17;3.30;;;14.80;99.90;;;;;;5047504;28;20682;-60
2022/04/20 06:04:50;;;;;;;4.13;3.47;;;16.00;99.90;;;;;;5054803;28;20645;-59
2022/04/20 06:07:55;;;;;;;4.07;3.20;;;16.80;99.90;;;;;;5046677;28;20554;-59
2022/04/20 06:11:01;;;;;;;4.20;3.20;;;18.40;99.90;;;;;;4993405;28;20217;-59
2022/04/20 06:13:29;;;;;;;5.45;3.10;;;19.20;99.90;;;;;;4973173;28;20275;-59
2022/04/20 06:16:07;;;;;;;6.07;3.25;;;20.20;99.90;;;;;;5032974;28;20213;-59
2022/04/20 06:18:52;;;;;;;4.18;2.70;;;20.40;99.90;;;;;;5047604;28;20199;-59
2022/04/20 06:21:25;;;;;;;5.70;3.03;;;20.30;99.90;;;;;;5046921;28;20759;-58
2022/04/20 06:24:21;;;;;;;6.80;3.15;;;20.80;99.90;;;;;;5045290;28;20211;-58
2022/04/20 06:27:05;;;;;;;4.93;2.88;;;21.30;99.90;;;;;;5063707;28;20210;-58
2022/04/20 06:29:42;;;;;;;5.18;3.10;;;20.30;99.90;;;;;;5064915;28;20191;-58
2022/04/20 06:32:29;;;;;;;3.95;2.97;;;21.00;99.90;;;;;;5066460;28;20668;-58
2022/04/20 06:35:10;;;;;;;7.18;3.10;;;22.10;99.90;;;;;;5053680;28;20287;-58
2022/04/20 06:37:48;;;;;;;5.65;2.70;;;23.60;99.90;;;;;;5066223;28;20211;-58
2022/04/20 06:40:33;;;;;;;4.30;3.78;;;24.90;99.90;;;;;;5048154;28;20303;-58
2022/04/20 06:43:38;;;;;;;5.13;3.90;;;24.60;99.90;;;;;;5055068;28;20202;-58
2022/04/20 06:46:25;;;;;;;7.20;3.58;;;23.50;99.90;;;;;;5017972;28;20295;-58
2022/04/20 06:49:14;;;;;;;4.93;3.70;;;22.60;99.90;;;;;;5056791;28;20725;-59
2022/04/20 07:00:17;;;;;;;4.80;2.70;;;24.40;99.90;;;;;;5047521;28;20774;-58
2022/04/20 07:03:10;;;;;;;5.45;3.20;;;26.20;99.90;;;;;;5058777;28;21211;-59
2022/04/20 07:06:01;;;;;;;6.80;3.42;;;27.40;99.90;;;;;;5046720;28;20692;-58
2022/04/20 07:08:48;;;;;;;4.03;2.97;;;26.20;99.90;;;;;;5065687;28;20209;-58
2022/04/20 07:11:17;;;;;;;6.22;3.05;;;25.30;99.90;;;;;;5063608;28;20218;-58
2022/04/20 07:13:46;;;;;;;3.83;3.05;;;26.70;99.90;;;;;;5042609;28;20199;-58
2022/04/20 07:16:14;;;;;;;5.40;2.78;;;28.70;99.90;;;;;;5064272;28;20201;-58
2022/04/20 07:18:45;;;;;;;6.32;3.00;;;30.30;99.90;;;;;;5041470;28;20252;-58
2022/04/20 07:21:34;;;;;;;4.05;2.65;;;29.00;99.90;;;;;;5056674;28;20215;-58
2022/04/20 07:24:11;;;;;;;6.13;2.50;;;28.50;99.90;;;;;;5060000;28;21023;-59
2022/04/20 07:26:57;;;;;;;6.40;2.90;;;27.10;99.90;;;;;;5048077;28;20202;-58
2022/04/20 07:29:29;;;;;;;8.52;3.42;;;26.20;99.90;;;;;;5039805;28;20191;-59
2022/04/20 07:32:10;;;;;;;6.45;3.13;;;24.60;99.90;;;;;;5058075;28;20229;-58
2022/04/20 07:35:05;;;;;;;4.75;2.83;;;26.10;99.90;;;;;;5039675;28;20242;-59
2022/04/20 07:38:00;;;;;;;4.53;2.42;;;26.30;99.90;;;;;;4972284;28;20222;-59
2022/04/20 07:40:46;;;;;;;4.45;2.20;;;27.10;99.90;;;;;;5059796;28;20770;-58
2022/04/20 07:43:41;;;;;;;3.60;2.47;;;27.10;99.90;;;;;;5029721;28;20207;-58
2022/04/20 07:46:24;;;;;;;4.55;2.40;;;27.10;99.90;;;;;;5046882;28;20265;-58
2022/04/20 07:52:23;;;;;;;5.40;2.60;;;28.40;99.90;;;;;;5054808;28;20207;-59
2022/04/20 07:55:14;;;;;;;2.55;2.10;;;29.40;99.90;;;;;;5046830;28;20199;-58
2022/04/20 07:57:54;;;;;;;4.15;2.40;;;29.60;99.90;;;;;;5047010;28;20530;-58
2022/04/20 08:00:38;;;;;;;3.97;2.58;;;28.80;99.90;;;;;;5045057;28;20264;-58
2022/04/20 08:03:32;;;;;;;3.40;2.42;;;30.00;99.90;;;;;;5031397;28;20194;-58
2022/04/20 08:06:01;;;;;;;3.88;2.50;;;30.40;99.90;;;;;;5043437;28;20194;-58
2022/04/20 08:08:31;;;;;;;4.38;2.28;;;30.60;99.90;;;;;;5061294;28;20202;-58
2022/04/20 08:11:00;;;;;;;3.17;2.15;;;30.20;99.90;;;;;;5057002;28;20217;-58
2022/04/20 08:16:35;;;;;;;6.88;2.70;;;29.30;99.90;;;;;;5040095;28;20256;-58
2022/04/20 08:19:22;;;;;;;5.15;2.50;;;31.40;99.90;;;;;;5003960;28;20765;-58
2022/04/20 08:21:54;;;;;;;7.10;2.65;;;34.50;99.90;;;;;;5038107;28;20198;-59
2022/04/20 08:24:21;;;;;;;4.65;2.38;;;33.70;99.90;;;;;;5050597;28;20234;-59
2022/04/20 08:26:48;;;;;;;2.25;2.05;;;31.80;99.90;;;;;;5063014;28;20302;-59
2022/04/20 08:29:15;;;;;;;2.83;2.33;;;31.40;99.90;;;;;;5064265;28;20615;-58
2022/04/20 08:31:42;;;;;;;2.70;2.20;;;30.30;99.90;;;;;;5056848;28;20206;-58
2022/04/20 08:34:09;;;;;;;5.47;3.10;;;29.20;99.90;;;;;;5060206;28;20674;-57
2022/04/20 08:36:36;;;;;;;2.92;2.63;;;28.00;99.90;;;;;;5062132;28;20257;-57
2022/04/20 08:39:03;;;;;;;5.10;2.50;;;29.00;99.90;;;;;;5064070;28;20211;-58
2022/04/20 08:41:31;;;;;;;6.78;2.50;;;28.70;99.90;;;;;;5062594;28;20252;-58
2022/04/20 08:44:01;;;;;;;3.50;2.53;;;30.00;99.90;;;;;;5064378;28;20620;-58
2022/04/20 08:46:38;;;;;;;4.07;2.60;;;31.60;99.90;;;;;;5063409;28;20195;-57
2022/04/20 08:49:06;;;;;;;8.05;2.70;;;31.80;99.90;;;;;;5066075;28;20198;-57
2022/04/20 08:54:23;;;;;;;4.00;2.50;;;30.00;99.90;;;;;;5064769;28;20191;-57
2022/04/20 08:59:36;;;;;;;4.05;2.50;;;31.00;99.90;;;;;;5062727;28;20267;-58
2022/04/20 09:02:03;;;;;;;3.17;2.10;;;30.10;99.90;;;;;;5061808;28;20626;-58
2022/04/20 09:04:30;;;;;;;6.75;2.20;;;31.30;99.90;;;;;;5061426;28;20612;-58
2022/04/20 09:06:58;;;;;;;4.53;2.63;;;30.70;99.90;;;;;;5062518;28;20214;-58
2022/04/20 09:09:29;;;;;;;3.92;2.13;;;33.40;99.90;;;;;;5061970;28;20183;-58
2022/04/20 09:11:59;;;;;;;3.22;2.47;;;33.50;99.90;;;;;;5065253;28;20191;-58
2022/04/20 09:14:30;;;;;;;4.22;2.72;;;34.70;99.90;;;;;;5047530;28;20199;-59
2022/04/20 09:17:01;;;;;;;5.03;2.60;;;33.80;99.90;;;;;;5066022;28;20187;-58
2022/04/20 09:19:29;;;;;;;4.85;3.00;;;33.80;99.90;;;;;;5065462;28;20232;-59
2022/04/20 09:21:56;;;;;;;3.47;2.53;;;33.80;99.90;;;;;;5068296;28;20726;-58
2022/04/20 09:24:23;;;;;;;5.38;2.22;;;32.60;99.90;;;;;;5069697;28;20629;-59
2022/04/20 09:26:55;;;;;;;6.43;2.72;;;30.80;99.90;;;;;;5065999;28;20804;-58
2022/04/20 09:29:23;;;;;;;3.95;2.50;;;31.50;99.90;;;;;;5063894;28;20199;-59
2022/04/20 09:31:51;;;;;;;3.00;2.42;;;31.00;99.90;;;;;;5067668;28;20248;-58
2022/04/20 09:37:29;;;;;;;3.80;2.00;;;31.70;99.90;;;;;;5055722;28;20218;-58
2022/04/20 09:40:01;;;;;;;2.30;1.90;;;31.10;99.90;;;;;;5063377;28;20239;-59
2022/04/20 09:42:29;;;;;;;2.92;2.33;;;33.10;99.90;;;;;;5048408;28;20262;-58
2022/04/20 09:45:00;;;;;;;3.22;2.00;;;32.00;99.90;;;;;;5050498;28;20202;-58
2022/04/20 09:50:27;;;;;;;3.25;2.40;;;30.10;99.90;;;;;;5049497;28;20253;-58
2022/04/20 09:52:57;;;;;;;2.47;2.28;;;30.90;99.90;;;;;;5048636;28;20196;-59
2022/04/20 09:55:33;;;;;;;7.43;2.38;;;33.60;99.90;;;;;;5043708;28;20215;-59
2022/04/20 09:58:13;;;;;;;3.22;2.53;;;31.80;99.90;;;;;;5050192;28;20202;-59
2022/04/20 10:00:42;;;;;;;3.13;2.50;;;30.60;99.90;;;;;;5045885;28;20218;-58
2022/04/20 10:03:09;;;;;;;5.38;2.80;;;30.30;99.90;;;;;;5026334;28;20222;-59
2022/04/20 10:05:37;;;;;;;3.20;2.40;;;30.90;99.90;;;;;;5048181;28;20275;-59
2022/04/20 10:08:05;;;;;;;3.03;2.63;;;29.40;99.90;;;;;;5042174;28;20192;-58
2022/04/20 10:10:33;;;;;;;3.90;2.58;;;28.70;99.90;;;;;;5044996;28;20354;-59
2022/04/20 10:13:03;;;;;;;5.38;2.78;;;29.30;99.90;;;;;;5045841;28;20222;-59
2022/04/20 10:18:19;;;;;;;4.30;2.38;;;26.90;99.90;;;;;;5042474;28;20191;-58
2022/04/20 10:20:50;;;;;;;4.40;2.50;;;27.50;99.90;;;;;;5047224;28;20694;-59
2022/04/20 10:23:22;;;;;;;3.75;2.42;;;28.50;99.90;;;;;;5046765;28;20657;-58
2022/04/20 10:25:52;;;;;;;4.18;2.67;;;30.60;99.90;;;;;;5046341;28;20187;-58
2022/04/20 10:28:37;;;;;;;3.67;2.45;;;27.30;99.90;;;;;;5042470;28;20503;-59
2022/04/20 10:31:25;;;;;;;3.53;2.50;;;29.40;99.90;;;;;;5045251;28;20288;-58
2022/04/20 10:33:59;;;;;;;3.40;2.42;;;30.30;99.90;;;;;;5047507;28;20298;-59
2022/04/20 10:36:38;;;;;;;2.60;2.40;;;27.40;99.90;;;;;;5064269;28;20294;-59
2022/04/20 10:39:19;;;;;;;3.72;2.47;;;27.10;99.90;;;;;;5057032;28;20243;-59
2022/04/20 10:42:11;;;;;;;4.68;2.55;;;28.10;99.90;;;;;;5036292;28;20211;-58
2022/04/20 10:44:49;;;;;;;3.05;2.60;;;27.20;99.90;;;;;;5046386;28;20257;-58
2022/04/20 10:47:22;;;;;;;2.97;2.60;;;27.50;99.90;;;;;;5041416;28;20849;-64
2022/04/20 10:49:53;;;;;;;3.08;2.70;;;27.90;99.90;;;;;;5049177;28;20273;-58
2022/04/20 10:52:24;;;;;;;2.97;2.72;;;27.40;99.90;;;;;;5047261;28;20219;-60
2022/04/20 10:54:52;;;;;;;7.18;2.85;;;27.00;99.90;;;;;;5043481;28;20203;-59
2022/04/20 10:57:41;;;;;;;3.42;2.70;;;27.30;99.90;;;;;;5040543;28;20208;-59
2022/04/20 11:00:17;;;;;;;4.30;2.90;;;26.50;99.90;;;;;;5045572;28;20305;-58
2022/04/20 11:02:49;;;;;;;5.93;2.97;;;26.50;99.90;;;;;;5044950;28;20213;-59
2022/04/20 11:05:22;;;;;;;4.78;2.70;;;27.50;99.90;;;;;;5043236;28;20187;-58
2022/04/20 11:08:14;;;;;;;5.47;2.58;;;25.90;99.90;;;;;;5045790;28;20257;-59
2022/04/20 11:10:43;;;;;;;5.53;2.97;;;26.20;99.90;;;;;;5048035;28;20735;-58
2022/04/20 11:19:10;;;;;;;5.20;2.63;;;23.20;99.90;;;;;;5038973;28;20207;-59
2022/04/20 11:22:09;;;;;;;4.70;3.13;;;23.50;99.90;;;;;;5046534;28;20713;-59
2022/04/20 11:24:41;;;;;;;3.55;2.97;;;23.20;99.90;;;;;;5046771;28;20270;-59
2022/04/20 11:27:08;;;;;;;5.07;3.10;;;23.40;99.90;;;;;;5047323;28;20286;-58
2022/04/20 11:29:36;;;;;;;4.40;2.53;;;24.00;99.90;;;;;;5046237;28;20226;-58
2022/04/20 11:32:07;;;;;;;2.83;2.60;;;25.60;99.90;;;;;;5029831;28;20210;-58
2022/04/20 11:35:11;;;;;;;6.07;2.92;;;24.30;99.90;;;;;;5047090;28;20192;-57
2022/04/20 11:37:39;;;;;;;2.90;2.60;;;24.60;99.90;;;;;;5047624;28;20187;-57
2022/04/20 11:40:12;;;;;;;7.68;3.00;;;25.10;99.90;;;;;;5054371;28;20273;-58
2022/04/20 11:42:43;;;;;;;4.78;2.92;;;24.90;99.90;;;;;;5049140;28;20673;-58
2022/04/20 11:45:11;;;;;;;5.00;3.33;;;24.00;99.90;;;;;;5066923;28;20504;-58
2022/04/20 11:47:40;;;;;;;4.45;3.20;;;23.20;99.90;;;;;;5065904;28;20210;-59
2022/04/20 11:50:12;;;;;;;5.70;3.08;;;23.30;99.90;;;;;;5041563;28;20199;-57
2022/04/20 11:52:59;;;;;;;8.60;3.20;;;22.90;99.90;;;;;;5055174;28;20276;-57
2022/04/20 11:55:48;;;;;;;5.10;3.40;;;23.20;99.90;;;;;;5046536;28;20749;-58
2022/04/20 11:58:18;;;;;;;5.85;3.13;;;24.10;99.90;;;;;;5066838;28;20283;-59
2022/04/20 12:00:45;;;;;;;6.30;3.20;;;23.70;99.90;;;;;;5067193;28;20250;-59
2022/04/20 12:03:12;;;;;;;5.88;3.25;;;23.30;99.90;;;;;;5065566;28;20607;-58
2022/04/20 12:05:39;;;;;;;7.82;3.60;;;22.40;99.90;;;;;;5055327;28;20238;-58
2022/04/20 12:08:07;;;;;;;4.18;3.03;;;22.30;99.90;;;;;;5048723;28;20198;-59
2022/04/20 12:10:37;;;;;;;6.97;3.67;;;23.30;99.90;;;;;;5066675;28;20193;-58
2022/04/20 12:13:04;;;;;;;4.35;2.90;;;23.60;99.90;;;;;;5066528;28;20217;-59
2022/04/20 12:15:32;;;;;;;4.63;3.50;;;24.30;99.90;;;;;;5067309;28;20274;-58
2022/04/20 12:18:11;;;;;;;3.30;3.00;;;23.70;99.90;;;;;;5049160;28;20301;-58
2022/04/20 12:20:46;;;;;;;8.35;3.50;;;24.10;99.90;;;;;;5067616;28;20652;-57
2022/04/20 12:23:16;;;;;;;4.22;3.60;;;22.90;99.90;;;;;;5046778;28;20191;-57
2022/04/20 12:25:50;;;;;;;5.70;3.17;;;22.20;99.90;;;;;;5061710;28;20194;-57
2022/04/20 12:28:36;;;;;;;7.80;3.10;;;21.40;99.90;;;;;;5067383;28;20245;-59
2022/04/20 12:31:04;;;;;;;6.70;3.25;;;20.80;99.90;;;;;;5048565;28;20657;-59
2022/04/20 12:33:31;;;;;;;4.30;3.83;;;20.40;99.90;;;;;;5047599;28;20256;-58
2022/04/20 12:36:11;;;;;;;8.82;3.80;;;20.50;99.90;;;;;;5048931;28;20648;-58
2022/04/20 12:38:52;;;;;;;4.28;3.50;;;19.70;99.90;;;;;;5064601;28;20769;-58
2022/04/20 12:41:45;;;;;;;3.92;3.40;;;20.60;99.90;;;;;;5058518;28;20206;-59
2022/04/20 12:44:40;;;;;;;4.22;3.63;;;20.90;99.90;;;;;;5063439;28;20184;-58
2022/04/20 12:47:15;;;;;;;4.68;3.38;;;21.30;99.90;;;;;;5065401;28;20222;-58
2022/04/20 12:49:53;;;;;;;4.30;3.25;;;20.30;99.90;;;;;;5064511;28;20556;-59
2022/04/20 12:52:25;;;;;;;4.50;4.10;;;20.00;99.90;;;;;;5047506;28;20202;-58
2022/04/20 12:55:06;;;;;;;4.85;3.95;;;19.40;99.90;;;;;;5045970;28;20270;-57
2022/04/20 13:03:16;;;;;;;6.47;4.00;;;19.60;99.90;;;;;;5067603;28;20692;-58
2022/04/20 13:05:44;;;;;;;6.50;3.58;;;19.00;99.90;;;;;;5066561;28;20209;-56
2022/04/20 13:08:13;;;;;;;6.65;3.78;;;18.90;99.90;;;;;;5081240;28;20301;-56
2022/04/20 13:10:42;;;;;;;6.00;3.85;;;19.10;99.90;;;;;;5069718;28;20229;-58
2022/04/20 13:13:10;;;;;;;5.28;3.53;;;18.80;99.90;;;;;;5073819;28;20191;-57
2022/04/20 13:15:42;;;;;;;5.57;3.38;;;18.70;99.90;;;;;;5068725;28;20190;-58
2022/04/20 13:18:11;;;;;;;4.22;3.53;;;18.80;99.90;;;;;;5070500;28;20257;-58
2022/04/20 13:20:38;;;;;;;4.88;3.60;;;19.00;99.90;;;;;;5068381;28;20665;-57
2022/04/20 13:23:05;;;;;;;6.05;3.83;;;18.70;99.90;;;;;;5072085;28;20226;-57
2022/04/20 13:28:18;;;;;;;6.10;3.67;;;18.90;99.90;;;;;;5069420;28;20226;-58
2022/04/20 13:30:46;;;;;;;4.68;3.85;;;18.90;99.90;;;;;;5070241;28;20644;-58
2022/04/20 13:33:15;;;;;;;6.15;3.75;;;18.50;99.90;;;;;;5050305;28;20209;-58
2022/04/20 13:35:47;;;;;;;4.87;3.73;;;18.50;99.90;;;;;;5067628;28;20204;-58
2022/04/20 13:38:13;;;;;;;7.30;4.60;;;18.10;99.90;;;;;;5069244;28;20218;-58
2022/04/20 13:40:42;;;;;;;6.57;4.13;;;18.50;99.90;;;;;;5053196;28;20251;-58
2022/04/20 13:43:09;;;;;;;7.87;4.50;;;18.10;99.90;;;;;;5050315;28;20281;-58
2022/04/20 13:45:39;;;;;;;5.97;4.17;;;18.20;99.90;;;;;;5049716;28;20209;-57
2022/04/20 13:48:08;;;;;;;7.20;3.93;;;18.10;99.90;;;;;;5048981;28;20337;-58
2022/04/20 13:50:35;;;;;;;6.55;3.58;;;18.90;99.90;;;;;;5051165;28;20199;-58
2022/04/20 13:53:05;;;;;;;5.15;3.88;;;19.40;99.90;;;;;;5050967;28;20206;-58
2022/04/20 13:55:32;;;;;;;6.38;4.78;;;19.00;99.90;;;;;;5062506;28;20271;-58
2022/04/20 13:57:59;;;;;;;6.80;4.70;;;19.00;99.90;;;;;;5066822;28;20215;-57
2022/04/20 14:00:28;;;;;;;5.75;4.30;;;18.50;99.90;;;;;;5045179;28;20250;-58
2022/04/20 14:02:55;;;;;;;6.90;4.05;;;18.50;99.90;;;;;;5042123;28;20212;-58
2022/04/20 14:05:22;;;;;;;5.43;3.70;;;18.30;99.90;;;;;;5044995;28;20202;-57
2022/04/20 14:07:49;;;;;;;5.07;3.70;;;18.20;99.90;;;;;;5044455;28;20191;-58
2022/04/20 14:14:22;;;;;;;5.80;3.80;;;17.70;99.90;;;;;;5047281;28;20708;-57
2022/04/20 14:16:50;;;;;;;6.90;3.97;;;17.70;99.90;;;;;;5041866;28;20202;-57
2022/04/20 14:19:17;;;;;;;5.63;4.03;;;18.00;99.90;;;;;;5044996;28;20195;-58
2022/04/20 14:21:44;;;;;;;5.22;4.18;;;18.00;99.90;;;;;;5047539;28;20606;-58